createdAt,value
2022-08-04T00:02:57.696Z,4.93
2022-08-04T00:08:08.895Z,4.70
2022-08-04T00:13:13.503Z,4.70
2022-08-04T00:18:18.609Z,4.45
2022-08-04T00:23:24.786Z,4.60
2022-08-04T00:28:29.170Z,4.93
2022-08-04T00:33:33.382Z,4.75
2022-08-04T00:38:38.686Z,4.20
2022-08-04T00:43:54.277Z,4.70
2022-08-04T00:49:30.345Z,4.65
2022-08-04T00:54:43.073Z,5.10
2022-08-04T00:59:58.626Z,5.00
2022-08-04T01:05:06.251Z,4.97
2022-08-04T01:10:20.851Z,4.87
2022-08-04T01:15:59.971Z,5.50
2022-08-04T01:21:18.421Z,5.37
2022-08-04T01:26:57.457Z,5.00
2022-08-04T01:32:10.427Z,5.40
2022-08-04T01:37:26.228Z,5.20
2022-08-04T01:42:32.662Z,5.20
2022-08-04T01:47:39.047Z,4.57
2022-08-04T01:52:47.718Z,4.60
2022-08-04T01:57:54.633Z,4.47
2022-08-04T02:02:59.326Z,4.53
2022-08-04T02:08:16.288Z,4.50
2022-08-04T02:13:28.068Z,4.97
2022-08-04T02:18:45.307Z,5.00
2022-08-04T02:23:55.102Z,5.37
2022-08-04T02:29:04.932Z,5.23
2022-08-04T02:34:14.939Z,4.80
2022-08-04T02:39:21.640Z,4.53
2022-08-04T02:44:24.972Z,5.20
2022-08-04T02:49:33.568Z,5.50
2022-08-04T02:54:41.493Z,5.53
2022-08-04T03:00:01.728Z,6.13
2022-08-04T03:05:17.263Z,4.80
2022-08-04T03:10:38.756Z,5.50
2022-08-04T03:16:05.044Z,5.70
2022-08-04T03:21:41.683Z,6.70
2022-08-04T03:27:01.946Z,5.80
2022-08-04T03:32:39.330Z,6.60
2022-08-04T03:38:17.786Z,6.50
2022-08-04T03:43:57.581Z,5.97
2022-08-04T03:49:44.145Z,5.70
2022-08-04T03:55:31.886Z,6.90
2022-08-04T04:00:46.683Z,6.70
2022-08-04T04:06:31.658Z,6.00
2022-08-04T04:12:00.417Z,6.70
2022-08-04T04:17:21.754Z,6.67
2022-08-04T04:22:45.781Z,6.43
2022-08-04T04:28:44.184Z,6.77
2022-08-04T04:33:57.103Z,7.00
2022-08-04T04:39:13.727Z,6.70
2022-08-04T04:44:52.106Z,6.10
2022-08-04T04:50:03.313Z,6.20
2022-08-04T04:55:19.534Z,6.10
2022-08-04T05:00:26.225Z,6.72
2022-08-04T05:05:38.502Z,6.25
2022-08-04T05:10:58.047Z,7.28
2022-08-04T05:16:08.772Z,7.20
2022-08-04T05:21:24.447Z,7.47
2022-08-04T05:26:33.741Z,6.90
2022-08-04T05:31:42.342Z,7.00
2022-08-04T05:36:49.079Z,6.80
2022-08-04T05:41:55.612Z,7.03
2022-08-04T05:47:04.853Z,6.80
2022-08-04T05:52:09.004Z,7.50
2022-08-04T05:57:13.205Z,7.15
2022-08-04T06:02:20.229Z,6.93
2022-08-04T06:07:23.454Z,6.07
2022-08-04T06:12:33.753Z,6.47
2022-08-04T06:18:33.429Z,7.97
2022-08-04T06:23:12.604Z,6.30
2022-08-04T06:28:17.756Z,5.70
2022-08-04T06:33:33.485Z,5.85
2022-08-04T06:38:58.790Z,5.68
2022-08-04T06:44:06.096Z,5.30
2022-08-04T06:49:11.635Z,5.53
2022-08-04T06:54:14.797Z,5.30
2022-08-04T06:59:18.683Z,5.72
2022-08-04T07:04:23.102Z,4.97
2022-08-04T07:09:26.206Z,5.00
2022-08-04T07:14:29.962Z,4.70
2022-08-04T07:19:34.816Z,4.53
2022-08-04T07:24:41.116Z,5.10
2022-08-04T07:29:46.069Z,5.40
2022-08-04T07:34:51.509Z,4.90
2022-08-04T07:39:55.856Z,4.80
2022-08-04T07:44:59.572Z,4.95
2022-08-04T07:50:04.148Z,5.20
2022-08-04T07:55:08.440Z,5.40
2022-08-04T08:00:14.860Z,4.55
2022-08-04T08:05:21.382Z,4.50
2022-08-04T08:10:24.794Z,5.10
2022-08-04T08:15:27.834Z,5.18
2022-08-04T08:20:33.731Z,4.82
2022-08-04T08:25:38.377Z,5.05
2022-08-04T08:30:41.902Z,5.82
2022-08-04T08:35:55.723Z,5.25
2022-08-04T08:41:24.885Z,5.03
2022-08-04T08:46:49.670Z,4.93
2022-08-04T08:52:08.801Z,4.43
2022-08-04T08:57:26.925Z,4.57
2022-08-04T09:03:04.066Z,4.50
2022-08-04T09:08:24.243Z,4.20
2022-08-04T09:13:33.890Z,4.07
2022-08-04T09:18:43.253Z,4.68
2022-08-04T09:23:53.265Z,3.92
2022-08-04T09:29:08.655Z,3.50
2022-08-04T09:34:18.352Z,4.00
2022-08-04T09:39:30.155Z,3.80
2022-08-04T09:44:54.009Z,3.60
2022-08-04T09:50:10.397Z,3.58
2022-08-04T09:55:25.601Z,3.30
2022-08-04T10:00:41.356Z,3.42
2022-08-04T10:06:08.216Z,3.35
2022-08-04T10:11:17.670Z,3.30
2022-08-04T10:16:45.305Z,3.70
2022-08-04T10:22:28.376Z,3.72
2022-08-04T10:27:37.816Z,3.60
2022-08-04T10:32:46.751Z,3.45
2022-08-04T10:38:02.089Z,3.40
2022-08-04T10:43:21.988Z,3.53
2022-08-04T10:48:35.290Z,3.30
2022-08-04T10:53:40.071Z,3.75
2022-08-04T10:58:50.775Z,3.63
2022-08-04T11:03:59.938Z,3.88
2022-08-04T11:09:05.237Z,3.35
2022-08-04T11:14:24.290Z,3.40
2022-08-04T11:19:42.632Z,3.40
2022-08-04T11:24:55.126Z,3.25
2022-08-04T11:30:04.536Z,3.08
2022-08-04T11:35:13.459Z,3.65
2022-08-04T11:40:24.083Z,3.13
2022-08-04T11:45:35.222Z,3.28
2022-08-04T11:50:41.651Z,3.80
2022-08-04T11:56:08.301Z,3.13
2022-08-04T12:01:21.580Z,3.10
2022-08-04T12:06:31.792Z,3.58
2022-08-04T12:11:48.252Z,3.10
2022-08-04T12:17:01.108Z,3.42
2022-08-04T12:22:09.907Z,3.53
2022-08-04T12:27:18.172Z,3.55
2022-08-04T12:32:27.281Z,3.38
2022-08-04T12:37:43.268Z,3.67
2022-08-04T12:43:00.063Z,3.63
2022-08-04T12:48:07.437Z,3.60
2022-08-04T12:53:19.361Z,3.58
2022-08-04T12:58:43.293Z,3.50
2022-08-04T13:03:53.709Z,3.47
2022-08-04T13:09:03.451Z,3.80
2022-08-04T13:14:25.965Z,3.60
2022-08-04T13:19:41.187Z,4.22
2022-08-04T13:24:56.985Z,3.55
2022-08-04T13:30:14.739Z,3.55
2022-08-04T13:35:56.001Z,4.15
2022-08-04T13:40:54.141Z,3.88
2022-08-04T13:46:01.842Z,4.20
2022-08-04T13:51:09.096Z,3.30
2022-08-04T13:56:17.300Z,3.80
2022-08-04T14:01:35.607Z,4.00
2022-08-04T14:06:48.997Z,3.50
2022-08-04T14:12:06.305Z,3.97
2022-08-04T14:17:20.135Z,3.55
2022-08-04T14:22:36.723Z,3.88
2022-08-04T14:27:45.315Z,3.33
2022-08-04T14:32:57.889Z,3.75
2022-08-04T14:38:04.208Z,3.70
2022-08-04T14:43:09.576Z,3.90
2022-08-04T14:48:14.116Z,4.00
2022-08-04T14:53:20.379Z,3.60
2022-08-04T14:58:34.551Z,3.42
2022-08-04T15:03:49.869Z,3.85
2022-08-04T15:08:59.092Z,4.50
2022-08-04T15:14:03.135Z,4.25
2022-08-04T15:19:08.377Z,4.03
2022-08-04T15:24:13.328Z,4.15
2022-08-04T15:29:26.563Z,4.03
2022-08-04T15:34:29.670Z,3.80
2022-08-04T15:39:39.660Z,3.75
2022-08-04T15:45:05.794Z,3.85
2022-08-04T15:50:10.769Z,3.90
2022-08-04T15:55:35.952Z,4.43
2022-08-04T16:01:17.676Z,3.95
2022-08-04T16:06:44.769Z,3.80
2022-08-04T16:11:49.198Z,4.40
2022-08-04T16:16:52.263Z,3.70
2022-08-04T16:21:56.763Z,3.75
2022-08-04T16:27:02.154Z,4.20
2022-08-04T16:32:25.375Z,4.10
2022-08-04T16:37:34.878Z,4.55
2022-08-04T16:42:39.685Z,4.07
2022-08-04T16:48:02.388Z,3.92
2022-08-04T16:53:14.680Z,4.30
2022-08-04T16:58:37.561Z,3.90
2022-08-04T17:03:55.606Z,3.67
2022-08-04T17:09:06.462Z,3.72
2022-08-04T17:14:11.750Z,3.53
2022-08-04T17:19:23.840Z,4.20
2022-08-04T17:24:29.835Z,3.85
2022-08-04T17:35:01.584Z,3.83
2022-08-04T17:40:12.905Z,4.07
2022-08-04T17:50:43.771Z,4.10
2022-08-04T17:55:49.439Z,4.82
2022-08-04T18:01:24.236Z,4.50
2022-08-04T18:06:27.455Z,3.78
2022-08-04T18:11:41.935Z,3.75
2022-08-04T18:16:47.066Z,3.60
2022-08-04T18:21:59.659Z,3.85
2022-08-04T18:27:06.667Z,3.80
2022-08-04T18:32:11.648Z,3.97
2022-08-04T18:38:03.831Z,3.72
2022-08-04T18:42:39.062Z,3.80
2022-08-04T18:47:58.251Z,3.53
2022-08-04T18:53:01.862Z,3.50
2022-08-04T18:58:11.897Z,3.65
2022-08-04T19:03:23.068Z,3.95
2022-08-04T19:08:33.531Z,3.85
2022-08-04T19:13:38.358Z,3.85
2022-08-04T19:18:42.954Z,4.05
2022-08-04T19:24:28.616Z,4.00
2022-08-04T19:29:09.203Z,4.10
2022-08-04T19:34:13.741Z,4.10
2022-08-04T19:39:18.108Z,4.07
2022-08-04T19:44:24.641Z,3.63
2022-08-04T19:50:04.909Z,3.80
2022-08-04T19:54:56.917Z,3.85
2022-08-04T20:00:00.046Z,3.60
2022-08-04T20:05:08.774Z,3.80
2022-08-04T20:10:13.020Z,3.90
2022-08-04T20:15:16.761Z,3.88
2022-08-04T20:20:21.174Z,4.00
2022-08-04T20:25:37.419Z,4.18
2022-08-04T20:30:42.125Z,3.80
2022-08-04T20:36:05.726Z,4.22
2022-08-04T20:41:09.473Z,4.70
2022-08-04T20:46:18.004Z,4.35
2022-08-04T20:51:31.640Z,4.13
2022-08-04T20:56:36.403Z,4.30
2022-08-04T21:01:39.495Z,4.80
2022-08-04T21:06:50.126Z,4.45
2022-08-04T21:11:53.301Z,5.15
2022-08-04T21:16:57.598Z,4.90
2022-08-04T21:22:04.214Z,4.72
2022-08-04T21:27:09.662Z,5.05
2022-08-04T21:32:12.927Z,4.55
2022-08-04T21:37:18.419Z,4.80
2022-08-04T21:42:29.704Z,4.50
2022-08-04T21:47:45.822Z,5.40
2022-08-04T21:52:53.659Z,5.10
2022-08-04T21:57:58.732Z,4.80
2022-08-04T22:03:03.279Z,5.22
2022-08-04T22:08:07.786Z,4.70
2022-08-04T22:13:23.060Z,4.80
2022-08-04T22:18:46.024Z,5.57
2022-08-04T22:23:51.553Z,4.90
2022-08-04T22:28:55.184Z,4.93
2022-08-04T22:33:58.604Z,5.30
2022-08-04T22:39:07.518Z,4.90
2022-08-04T22:44:15.347Z,5.10
2022-08-04T22:49:19.184Z,5.38
2022-08-04T22:54:29.906Z,5.38
2022-08-04T22:59:34.882Z,4.97
2022-08-04T23:04:37.901Z,4.97
2022-08-04T23:09:50.842Z,5.10
2022-08-04T23:14:54.941Z,5.30
2022-08-04T23:19:59.958Z,5.38
2022-08-04T23:25:04.989Z,5.22
2022-08-04T23:30:09.083Z,4.55
2022-08-04T23:35:12.222Z,4.80
2022-08-04T23:40:33.435Z,5.18
2022-08-04T23:46:06.820Z,4.95
2022-08-04T23:51:14.568Z,4.63
2022-08-04T23:56:20.056Z,4.70
